sensor_id;sensor_type;location;lat;lon;timestamp;P1;durP1;ratioP1;P2;durP2;ratioP2
83769;SDS011;73763;48.936;9.300;2024-03-08T00:01:43;29.20;;;20.52;;
83769;SDS011;73763;48.936;9.300;2024-03-08T00:04:08;28.73;;;20.50;;
83769;SDS011;73763;48.936;9.300;2024-03-08T00:06:34;29.33;;;20.75;;
83769;SDS011;73763;48.936;9.300;2024-03-08T00:08:59;29.97;;;21.23;;
83769;SDS011;73763;48.936;9.300;2024-03-08T00:11:25;29.93;;;20.60;;
83769;SDS011;73763;48.936;9.300;2024-03-08T00:13:50;29.27;;;20.37;;
83769;SDS011;73763;48.936;9.300;2024-03-08T00:16:16;29.00;;;20.80;;
83769;SDS011;73763;48.936;9.300;2024-03-08T00:18:41;29.40;;;20.88;;
83769;SDS011;73763;48.936;9.300;2024-03-08T00:21:07;30.90;;;20.93;;
83769;SDS011;73763;48.936;9.300;2024-03-08T00:23:32;32.05;;;21.58;;
83769;SDS011;73763;48.936;9.300;2024-03-08T00:25:58;27.27;;;20.57;;
83769;SDS011;73763;48.936;9.300;2024-03-08T00:28:23;28.48;;;20.63;;
83769;SDS011;73763;48.936;9.300;2024-03-08T00:30:49;30.10;;;21.27;;
83769;SDS011;73763;48.936;9.300;2024-03-08T00:33:14;30.33;;;20.73;;
83769;SDS011;73763;48.936;9.300;2024-03-08T00:35:40;29.57;;;21.60;;
83769;SDS011;73763;48.936;9.300;2024-03-08T00:38:05;30.17;;;20.50;;
83769;SDS011;73763;48.936;9.300;2024-03-08T00:40:31;29.50;;;20.77;;
83769;SDS011;73763;48.936;9.300;2024-03-08T00:42:56;29.30;;;20.73;;
83769;SDS011;73763;48.936;9.300;2024-03-08T00:45:22;31.37;;;20.80;;
83769;SDS011;73763;48.936;9.300;2024-03-08T00:47:47;32.22;;;21.60;;
83769;SDS011;73763;48.936;9.300;2024-03-08T00:50:13;28.50;;;20.80;;
83769;SDS011;73763;48.936;9.300;2024-03-08T00:52:38;32.00;;;21.15;;
83769;SDS011;73763;48.936;9.300;2024-03-08T00:55:04;32.13;;;21.90;;
83769;SDS011;73763;48.936;9.300;2024-03-08T00:57:29;32.70;;;22.17;;
83769;SDS011;73763;48.936;9.300;2024-03-08T00:59:55;29.23;;;21.58;;
83769;SDS011;73763;48.936;9.300;2024-03-08T01:02:20;31.60;;;21.97;;
83769;SDS011;73763;48.936;9.300;2024-03-08T01:04:46;29.63;;;20.90;;
83769;SDS011;73763;48.936;9.300;2024-03-08T01:07:12;30.20;;;21.15;;
83769;SDS011;73763;48.936;9.300;2024-03-08T01:09:37;31.67;;;21.83;;
83769;SDS011;73763;48.936;9.300;2024-03-08T01:12:03;31.63;;;21.55;;
83769;SDS011;73763;48.936;9.300;2024-03-08T01:14:28;31.30;;;20.93;;
83769;SDS011;73763;48.936;9.300;2024-03-08T01:16:54;29.50;;;21.60;;
83769;SDS011;73763;48.936;9.300;2024-03-08T01:19:19;30.77;;;21.13;;
83769;SDS011;73763;48.936;9.300;2024-03-08T01:21:45;31.35;;;21.98;;
83769;SDS011;73763;48.936;9.300;2024-03-08T01:24:10;30.27;;;21.52;;
83769;SDS011;73763;48.936;9.300;2024-03-08T01:26:36;31.87;;;21.73;;
83769;SDS011;73763;48.936;9.300;2024-03-08T01:29:02;30.83;;;21.15;;
83769;SDS011;73763;48.936;9.300;2024-03-08T01:31:28;29.20;;;20.63;;
83769;SDS011;73763;48.936;9.300;2024-03-08T01:33:54;32.63;;;21.38;;
83769;SDS011;73763;48.936;9.300;2024-03-08T01:36:19;31.42;;;21.00;;
83769;SDS011;73763;48.936;9.300;2024-03-08T01:38:45;30.07;;;20.87;;
83769;SDS011;73763;48.936;9.300;2024-03-08T01:41:10;29.35;;;21.40;;
83769;SDS011;73763;48.936;9.300;2024-03-08T01:43:36;31.97;;;21.30;;
83769;SDS011;73763;48.936;9.300;2024-03-08T01:46:01;31.08;;;21.30;;
83769;SDS011;73763;48.936;9.300;2024-03-08T01:48:27;29.97;;;20.73;;
83769;SDS011;73763;48.936;9.300;2024-03-08T01:50:53;31.35;;;21.55;;
83769;SDS011;73763;48.936;9.300;2024-03-08T01:53:20;32.17;;;20.80;;
83769;SDS011;73763;48.936;9.300;2024-03-08T01:55:46;30.20;;;21.20;;
83769;SDS011;73763;48.936;9.300;2024-03-08T01:58:13;30.17;;;21.38;;
83769;SDS011;73763;48.936;9.300;2024-03-08T02:00:39;29.58;;;21.50;;
83769;SDS011;73763;48.936;9.300;2024-03-08T02:03:07;32.58;;;21.50;;
83769;SDS011;73763;48.936;9.300;2024-03-08T02:05:32;30.70;;;21.40;;
83769;SDS011;73763;48.936;9.300;2024-03-08T02:07:58;29.17;;;21.00;;
83769;SDS011;73763;48.936;9.300;2024-03-08T02:10:23;33.03;;;21.43;;
83769;SDS011;73763;48.936;9.300;2024-03-08T02:12:49;31.33;;;21.02;;
83769;SDS011;73763;48.936;9.300;2024-03-08T02:15:14;32.58;;;21.38;;
83769;SDS011;73763;48.936;9.300;2024-03-08T02:17:40;29.93;;;20.20;;
83769;SDS011;73763;48.936;9.300;2024-03-08T02:20:06;30.92;;;20.75;;
83769;SDS011;73763;48.936;9.300;2024-03-08T02:22:31;30.23;;;20.40;;
83769;SDS011;73763;48.936;9.300;2024-03-08T02:24:58;28.83;;;20.50;;
83769;SDS011;73763;48.936;9.300;2024-03-08T02:27:24;28.13;;;20.60;;
83769;SDS011;73763;48.936;9.300;2024-03-08T02:29:49;29.15;;;20.25;;
83769;SDS011;73763;48.936;9.300;2024-03-08T02:32:19;28.60;;;20.30;;
83769;SDS011;73763;48.936;9.300;2024-03-08T02:34:45;28.60;;;20.60;;
83769;SDS011;73763;48.936;9.300;2024-03-08T02:37:10;28.33;;;20.33;;
83769;SDS011;73763;48.936;9.300;2024-03-08T02:39:36;30.77;;;21.00;;
83769;SDS011;73763;48.936;9.300;2024-03-08T02:42:01;30.35;;;21.30;;
83769;SDS011;73763;48.936;9.300;2024-03-08T02:44:27;30.30;;;21.20;;
83769;SDS011;73763;48.936;9.300;2024-03-08T02:46:52;29.77;;;20.80;;
83769;SDS011;73763;48.936;9.300;2024-03-08T02:49:18;29.87;;;20.50;;
83769;SDS011;73763;48.936;9.300;2024-03-08T02:51:43;32.03;;;22.15;;
83769;SDS011;73763;48.936;9.300;2024-03-08T02:54:09;31.37;;;21.40;;
83769;SDS011;73763;48.936;9.300;2024-03-08T02:56:34;29.95;;;20.95;;
83769;SDS011;73763;48.936;9.300;2024-03-08T02:59:00;31.10;;;21.33;;
83769;SDS011;73763;48.936;9.300;2024-03-08T03:01:25;32.35;;;20.95;;
83769;SDS011;73763;48.936;9.300;2024-03-08T03:03:51;29.88;;;21.25;;
83769;SDS011;73763;48.936;9.300;2024-03-08T03:06:17;32.00;;;20.95;;
83769;SDS011;73763;48.936;9.300;2024-03-08T03:08:42;32.80;;;21.83;;
83769;SDS011;73763;48.936;9.300;2024-03-08T03:11:08;30.77;;;21.85;;
83769;SDS011;73763;48.936;9.300;2024-03-08T03:13:33;29.30;;;20.37;;
83769;SDS011;73763;48.936;9.300;2024-03-08T03:15:59;29.75;;;21.23;;
83769;SDS011;73763;48.936;9.300;2024-03-08T03:18:24;30.87;;;21.10;;
83769;SDS011;73763;48.936;9.300;2024-03-08T03:20:50;30.52;;;20.85;;
83769;SDS011;73763;48.936;9.300;2024-03-08T03:23:15;30.92;;;20.65;;
83769;SDS011;73763;48.936;9.300;2024-03-08T03:25:41;31.87;;;21.77;;
83769;SDS011;73763;48.936;9.300;2024-03-08T03:28:06;31.37;;;21.43;;
83769;SDS011;73763;48.936;9.300;2024-03-08T03:30:32;30.27;;;21.03;;
83769;SDS011;73763;48.936;9.300;2024-03-08T03:32:58;29.50;;;20.40;;
83769;SDS011;73763;48.936;9.300;2024-03-08T03:35:27;34.10;;;21.45;;
83769;SDS011;73763;48.936;9.300;2024-03-08T03:37:53;30.10;;;20.42;;
83769;SDS011;73763;48.936;9.300;2024-03-08T03:40:19;30.97;;;21.30;;
83769;SDS011;73763;48.936;9.300;2024-03-08T03:42:44;30.98;;;21.33;;
83769;SDS011;73763;48.936;9.300;2024-03-08T03:45:10;31.03;;;21.43;;
83769;SDS011;73763;48.936;9.300;2024-03-08T03:47:35;31.05;;;20.88;;
83769;SDS011;73763;48.936;9.300;2024-03-08T03:50:01;30.23;;;20.55;;
83769;SDS011;73763;48.936;9.300;2024-03-08T03:52:26;28.57;;;20.63;;
83769;SDS011;73763;48.936;9.300;2024-03-08T03:54:52;29.05;;;20.63;;
83769;SDS011;73763;48.936;9.300;2024-03-08T03:57:17;30.80;;;21.50;;
83769;SDS011;73763;48.936;9.300;2024-03-08T03:59:43;31.33;;;21.40;;
83769;SDS011;73763;48.936;9.300;2024-03-08T04:02:08;30.67;;;21.27;;
83769;SDS011;73763;48.936;9.300;2024-03-08T04:04:34;29.20;;;20.80;;
83769;SDS011;73763;48.936;9.300;2024-03-08T04:06:59;31.50;;;21.58;;
83769;SDS011;73763;48.936;9.300;2024-03-08T04:09:25;32.27;;;22.03;;
83769;SDS011;73763;48.936;9.300;2024-03-08T04:11:50;31.67;;;22.10;;
83769;SDS011;73763;48.936;9.300;2024-03-08T04:14:16;32.50;;;22.47;;
83769;SDS011;73763;48.936;9.300;2024-03-08T04:16:41;31.38;;;21.83;;
83769;SDS011;73763;48.936;9.300;2024-03-08T04:19:07;31.03;;;21.50;;
83769;SDS011;73763;48.936;9.300;2024-03-08T04:21:32;32.17;;;22.63;;
83769;SDS011;73763;48.936;9.300;2024-03-08T04:23:58;32.40;;;21.73;;
83769;SDS011;73763;48.936;9.300;2024-03-08T04:26:23;32.60;;;21.87;;
83769;SDS011;73763;48.936;9.300;2024-03-08T04:28:49;31.93;;;22.60;;
83769;SDS011;73763;48.936;9.300;2024-03-08T04:31:14;31.97;;;22.50;;
83769;SDS011;73763;48.936;9.300;2024-03-08T04:33:40;35.38;;;22.13;;
83769;SDS011;73763;48.936;9.300;2024-03-08T04:36:05;34.17;;;22.50;;
83769;SDS011;73763;48.936;9.300;2024-03-08T04:38:31;33.50;;;22.13;;
83769;SDS011;73763;48.936;9.300;2024-03-08T04:40:57;32.17;;;22.15;;
83769;SDS011;73763;48.936;9.300;2024-03-08T04:43:23;36.50;;;23.35;;
83769;SDS011;73763;48.936;9.300;2024-03-08T04:45:49;33.03;;;23.20;;
83769;SDS011;73763;48.936;9.300;2024-03-08T04:48:14;33.95;;;23.60;;
83769;SDS011;73763;48.936;9.300;2024-03-08T04:50:40;34.40;;;23.13;;
83769;SDS011;73763;48.936;9.300;2024-03-08T04:53:05;35.70;;;24.25;;
83769;SDS011;73763;48.936;9.300;2024-03-08T04:55:31;33.03;;;23.60;;
83769;SDS011;73763;48.936;9.300;2024-03-08T04:57:56;35.03;;;23.25;;
83769;SDS011;73763;48.936;9.300;2024-03-08T05:00:22;34.63;;;22.83;;
83769;SDS011;73763;48.936;9.300;2024-03-08T05:02:47;34.43;;;22.93;;
83769;SDS011;73763;48.936;9.300;2024-03-08T05:05:13;35.10;;;23.17;;
83769;SDS011;73763;48.936;9.300;2024-03-08T05:07:39;34.50;;;22.50;;
83769;SDS011;73763;48.936;9.300;2024-03-08T05:10:04;33.50;;;22.90;;
83769;SDS011;73763;48.936;9.300;2024-03-08T05:12:31;32.85;;;23.08;;
83769;SDS011;73763;48.936;9.300;2024-03-08T05:14:56;34.77;;;23.40;;
83769;SDS011;73763;48.936;9.300;2024-03-08T05:17:22;31.50;;;22.50;;
83769;SDS011;73763;48.936;9.300;2024-03-08T05:19:47;38.60;;;23.70;;
83769;SDS011;73763;48.936;9.300;2024-03-08T05:22:13;34.57;;;23.10;;
83769;SDS011;73763;48.936;9.300;2024-03-08T05:24:38;34.05;;;22.83;;
83769;SDS011;73763;48.936;9.300;2024-03-08T05:27:04;36.33;;;23.73;;
83769;SDS011;73763;48.936;9.300;2024-03-08T05:29:29;35.95;;;23.83;;
83769;SDS011;73763;48.936;9.300;2024-03-08T05:31:55;34.93;;;24.90;;
83769;SDS011;73763;48.936;9.300;2024-03-08T05:34:20;35.77;;;25.07;;
83769;SDS011;73763;48.936;9.300;2024-03-08T05:36:46;36.63;;;23.38;;
83769;SDS011;73763;48.936;9.300;2024-03-08T05:39:15;34.42;;;24.13;;
83769;SDS011;73763;48.936;9.300;2024-03-08T05:41:42;35.80;;;24.75;;
83769;SDS011;73763;48.936;9.300;2024-03-08T05:44:08;38.50;;;24.73;;
83769;SDS011;73763;48.936;9.300;2024-03-08T05:46:34;35.25;;;24.13;;
83769;SDS011;73763;48.936;9.300;2024-03-08T05:49:00;37.33;;;24.27;;
83769;SDS011;73763;48.936;9.300;2024-03-08T05:51:26;36.63;;;25.03;;
83769;SDS011;73763;48.936;9.300;2024-03-08T05:53:52;36.83;;;24.67;;
83769;SDS011;73763;48.936;9.300;2024-03-08T05:56:18;38.88;;;25.92;;
83769;SDS011;73763;48.936;9.300;2024-03-08T05:58:44;37.38;;;24.10;;
83769;SDS011;73763;48.936;9.300;2024-03-08T06:01:09;35.95;;;23.85;;
83769;SDS011;73763;48.936;9.300;2024-03-08T06:03:35;35.97;;;24.53;;
83769;SDS011;73763;48.936;9.300;2024-03-08T06:06:00;37.57;;;25.20;;
83769;SDS011;73763;48.936;9.300;2024-03-08T06:08:26;37.07;;;24.77;;
83769;SDS011;73763;48.936;9.300;2024-03-08T06:10:51;35.47;;;25.57;;
83769;SDS011;73763;48.936;9.300;2024-03-08T06:13:17;38.22;;;25.75;;
83769;SDS011;73763;48.936;9.300;2024-03-08T06:15:42;35.53;;;23.93;;
83769;SDS011;73763;48.936;9.300;2024-03-08T06:18:08;38.42;;;25.15;;
83769;SDS011;73763;48.936;9.300;2024-03-08T06:20:33;35.57;;;24.23;;
83769;SDS011;73763;48.936;9.300;2024-03-08T06:22:59;36.80;;;25.23;;
83769;SDS011;73763;48.936;9.300;2024-03-08T06:25:24;33.03;;;23.03;;
83769;SDS011;73763;48.936;9.300;2024-03-08T06:27:50;34.03;;;23.92;;
83769;SDS011;73763;48.936;9.300;2024-03-08T06:30:15;33.87;;;24.23;;
83769;SDS011;73763;48.936;9.300;2024-03-08T06:32:41;32.27;;;23.70;;
83769;SDS011;73763;48.936;9.300;2024-03-08T06:35:06;34.35;;;23.88;;
83769;SDS011;73763;48.936;9.300;2024-03-08T06:37:32;32.08;;;22.70;;
83769;SDS011;73763;48.936;9.300;2024-03-08T06:39:58;29.70;;;22.05;;
83769;SDS011;73763;48.936;9.300;2024-03-08T06:42:24;34.13;;;22.85;;
83769;SDS011;73763;48.936;9.300;2024-03-08T06:44:50;32.53;;;23.53;;
83769;SDS011;73763;48.936;9.300;2024-03-08T06:47:16;33.93;;;22.87;;
83769;SDS011;73763;48.936;9.300;2024-03-08T06:49:44;31.08;;;22.20;;
83769;SDS011;73763;48.936;9.300;2024-03-08T06:52:10;32.95;;;22.30;;
83769;SDS011;73763;48.936;9.300;2024-03-08T06:54:36;31.73;;;22.40;;
83769;SDS011;73763;48.936;9.300;2024-03-08T06:57:05;31.70;;;23.05;;
83769;SDS011;73763;48.936;9.300;2024-03-08T06:59:30;31.13;;;22.25;;
83769;SDS011;73763;48.936;9.300;2024-03-08T07:01:56;29.25;;;21.20;;
83769;SDS011;73763;48.936;9.300;2024-03-08T07:04:22;34.55;;;22.63;;
83769;SDS011;73763;48.936;9.300;2024-03-08T07:06:47;30.20;;;22.30;;
83769;SDS011;73763;48.936;9.300;2024-03-08T07:09:13;31.05;;;22.48;;
83769;SDS011;73763;48.936;9.300;2024-03-08T07:11:38;29.63;;;22.03;;
83769;SDS011;73763;48.936;9.300;2024-03-08T07:14:04;31.40;;;23.63;;
83769;SDS011;73763;48.936;9.300;2024-03-08T07:16:29;36.57;;;25.70;;
83769;SDS011;73763;48.936;9.300;2024-03-08T07:18:55;39.13;;;27.35;;
83769;SDS011;73763;48.936;9.300;2024-03-08T07:21:20;36.10;;;25.17;;
83769;SDS011;73763;48.936;9.300;2024-03-08T07:23:46;34.87;;;24.43;;
83769;SDS011;73763;48.936;9.300;2024-03-08T07:26:15;36.07;;;24.97;;
83769;SDS011;73763;48.936;9.300;2024-03-08T07:28:40;34.25;;;24.95;;
83769;SDS011;73763;48.936;9.300;2024-03-08T07:31:06;33.10;;;23.73;;
83769;SDS011;73763;48.936;9.300;2024-03-08T07:33:31;31.63;;;22.35;;
83769;SDS011;73763;48.936;9.300;2024-03-08T07:35:57;30.43;;;21.70;;
83769;SDS011;73763;48.936;9.300;2024-03-08T07:38:22;30.65;;;22.20;;
83769;SDS011;73763;48.936;9.300;2024-03-08T07:40:48;29.30;;;21.33;;
83769;SDS011;73763;48.936;9.300;2024-03-08T07:43:13;29.42;;;21.75;;
83769;SDS011;73763;48.936;9.300;2024-03-08T07:45:39;27.53;;;20.40;;
83769;SDS011;73763;48.936;9.300;2024-03-08T07:48:05;28.75;;;21.40;;
83769;SDS011;73763;48.936;9.300;2024-03-08T07:50:31;26.60;;;20.73;;
83769;SDS011;73763;48.936;9.300;2024-03-08T07:52:56;27.93;;;20.50;;
83769;SDS011;73763;48.936;9.300;2024-03-08T07:55:22;27.20;;;20.70;;
83769;SDS011;73763;48.936;9.300;2024-03-08T07:57:47;27.55;;;20.15;;
83769;SDS011;73763;48.936;9.300;2024-03-08T08:00:13;27.97;;;20.43;;
83769;SDS011;73763;48.936;9.300;2024-03-08T08:02:39;27.75;;;19.98;;
83769;SDS011;73763;48.936;9.300;2024-03-08T08:05:04;26.15;;;19.85;;
83769;SDS011;73763;48.936;9.300;2024-03-08T08:07:30;28.37;;;19.67;;
83769;SDS011;73763;48.936;9.300;2024-03-08T08:09:55;28.17;;;20.53;;
83769;SDS011;73763;48.936;9.300;2024-03-08T08:12:21;27.03;;;20.00;;
83769;SDS011;73763;48.936;9.300;2024-03-08T08:14:46;27.60;;;20.33;;
83769;SDS011;73763;48.936;9.300;2024-03-08T08:17:12;28.23;;;19.87;;
83769;SDS011;73763;48.936;9.300;2024-03-08T08:19:38;29.30;;;20.53;;
83769;SDS011;73763;48.936;9.300;2024-03-08T08:22:05;25.08;;;18.48;;
83769;SDS011;73763;48.936;9.300;2024-03-08T08:24:31;27.90;;;19.93;;
83769;SDS011;73763;48.936;9.300;2024-03-08T08:26:56;29.83;;;19.75;;
83769;SDS011;73763;48.936;9.300;2024-03-08T08:29:22;28.30;;;20.10;;
83769;SDS011;73763;48.936;9.300;2024-03-08T08:31:47;25.52;;;18.15;;
83769;SDS011;73763;48.936;9.300;2024-03-08T08:34:13;25.63;;;18.43;;
83769;SDS011;73763;48.936;9.300;2024-03-08T08:36:38;27.13;;;18.95;;
83769;SDS011;73763;48.936;9.300;2024-03-08T08:39:04;27.30;;;19.63;;
83769;SDS011;73763;48.936;9.300;2024-03-08T08:41:30;28.23;;;20.45;;
83769;SDS011;73763;48.936;9.300;2024-03-08T08:43:55;25.83;;;18.93;;
83769;SDS011;73763;48.936;9.300;2024-03-08T08:46:21;26.75;;;19.60;;
83769;SDS011;73763;48.936;9.300;2024-03-08T08:48:47;26.27;;;18.37;;
83769;SDS011;73763;48.936;9.300;2024-03-08T08:51:12;26.65;;;19.20;;
83769;SDS011;73763;48.936;9.300;2024-03-08T08:53:38;25.17;;;18.20;;
83769;SDS011;73763;48.936;9.300;2024-03-08T08:56:07;26.95;;;18.55;;
83769;SDS011;73763;48.936;9.300;2024-03-08T08:58:33;23.77;;;17.20;;
83769;SDS011;73763;48.936;9.300;2024-03-08T09:00:59;24.77;;;17.23;;
83769;SDS011;73763;48.936;9.300;2024-03-08T09:03:25;25.55;;;17.80;;
83769;SDS011;73763;48.936;9.300;2024-03-08T09:05:50;27.93;;;19.23;;
83769;SDS011;73763;48.936;9.300;2024-03-08T09:08:16;25.08;;;18.25;;
83769;SDS011;73763;48.936;9.300;2024-03-08T09:10:41;25.73;;;17.90;;
83769;SDS011;73763;48.936;9.300;2024-03-08T09:13:07;25.15;;;18.40;;
83769;SDS011;73763;48.936;9.300;2024-03-08T09:15:32;26.17;;;18.97;;
83769;SDS011;73763;48.936;9.300;2024-03-08T09:17:58;24.20;;;18.23;;
83769;SDS011;73763;48.936;9.300;2024-03-08T09:20:23;24.00;;;18.27;;
83769;SDS011;73763;48.936;9.300;2024-03-08T09:22:49;26.70;;;19.25;;
83769;SDS011;73763;48.936;9.300;2024-03-08T09:25:14;24.93;;;18.23;;
83769;SDS011;73763;48.936;9.300;2024-03-08T09:27:40;25.00;;;17.93;;
83769;SDS011;73763;48.936;9.300;2024-03-08T09:30:05;24.07;;;17.60;;
83769;SDS011;73763;48.936;9.300;2024-03-08T09:32:31;24.75;;;17.73;;
83769;SDS011;73763;48.936;9.300;2024-03-08T09:34:57;24.33;;;17.20;;
83769;SDS011;73763;48.936;9.300;2024-03-08T09:37:22;25.27;;;17.30;;
83769;SDS011;73763;48.936;9.300;2024-03-08T09:39:48;25.85;;;17.95;;
83769;SDS011;73763;48.936;9.300;2024-03-08T09:42:15;26.50;;;16.73;;
83769;SDS011;73763;48.936;9.300;2024-03-08T09:44:47;24.30;;;16.73;;
83769;SDS011;73763;48.936;9.300;2024-03-08T09:47:15;28.73;;;18.45;;
83769;SDS011;73763;48.936;9.300;2024-03-08T09:49:42;22.77;;;16.58;;
83769;SDS011;73763;48.936;9.300;2024-03-08T09:52:08;26.42;;;17.85;;
83769;SDS011;73763;48.936;9.300;2024-03-08T09:54:34;26.98;;;17.83;;
83769;SDS011;73763;48.936;9.300;2024-03-08T09:57:00;24.47;;;15.87;;
83769;SDS011;73763;48.936;9.300;2024-03-08T09:59:26;25.27;;;18.45;;
83769;SDS011;73763;48.936;9.300;2024-03-08T10:01:52;24.73;;;17.53;;
83769;SDS011;73763;48.936;9.300;2024-03-08T10:04:17;25.33;;;17.17;;
83769;SDS011;73763;48.936;9.300;2024-03-08T10:06:43;27.02;;;18.85;;
83769;SDS011;73763;48.936;9.300;2024-03-08T10:09:09;28.83;;;19.47;;
83769;SDS011;73763;48.936;9.300;2024-03-08T10:11:34;23.97;;;17.40;;
83769;SDS011;73763;48.936;9.300;2024-03-08T10:14:00;25.20;;;17.00;;
83769;SDS011;73763;48.936;9.300;2024-03-08T10:16:27;24.50;;;17.60;;
83769;SDS011;73763;48.936;9.300;2024-03-08T10:18:52;25.63;;;17.57;;
83769;SDS011;73763;48.936;9.300;2024-03-08T10:21:18;25.20;;;17.00;;
83769;SDS011;73763;48.936;9.300;2024-03-08T10:23:44;24.30;;;18.10;;
83769;SDS011;73763;48.936;9.300;2024-03-08T10:26:10;27.65;;;18.23;;
83769;SDS011;73763;48.936;9.300;2024-03-08T10:28:36;25.50;;;17.98;;
83769;SDS011;73763;48.936;9.300;2024-03-08T10:31:01;24.90;;;17.50;;
83769;SDS011;73763;48.936;9.300;2024-03-08T10:33:27;26.55;;;19.00;;
83769;SDS011;73763;48.936;9.300;2024-03-08T10:35:53;26.83;;;18.50;;
83769;SDS011;73763;48.936;9.300;2024-03-08T10:38:19;25.05;;;17.95;;
83769;SDS011;73763;48.936;9.300;2024-03-08T10:40:47;26.55;;;18.83;;
83769;SDS011;73763;48.936;9.300;2024-03-08T10:43:23;27.20;;;19.42;;
83769;SDS011;73763;48.936;9.300;2024-03-08T10:45:49;27.45;;;17.52;;
83769;SDS011;73763;48.936;9.300;2024-03-08T10:48:26;26.10;;;18.90;;
83769;SDS011;73763;48.936;9.300;2024-03-08T10:50:54;27.13;;;18.80;;
83769;SDS011;73763;48.936;9.300;2024-03-08T10:53:21;28.13;;;18.38;;
83769;SDS011;73763;48.936;9.300;2024-03-08T10:55:49;25.35;;;17.40;;
83769;SDS011;73763;48.936;9.300;2024-03-08T10:58:15;27.33;;;18.88;;
83769;SDS011;73763;48.936;9.300;2024-03-08T11:00:42;33.10;;;22.65;;
83769;SDS011;73763;48.936;9.300;2024-03-08T11:03:07;29.13;;;20.00;;
83769;SDS011;73763;48.936;9.300;2024-03-08T11:06:08;29.08;;;20.38;;
83769;SDS011;73763;48.936;9.300;2024-03-08T11:08:39;30.75;;;22.98;;
83769;SDS011;73763;48.936;9.300;2024-03-08T11:11:05;26.23;;;18.40;;
83769;SDS011;73763;48.936;9.300;2024-03-08T11:13:34;24.48;;;17.52;;
83769;SDS011;73763;48.936;9.300;2024-03-08T11:16:08;25.65;;;18.60;;
83769;SDS011;73763;48.936;9.300;2024-03-08T11:18:37;25.75;;;18.98;;
83769;SDS011;73763;48.936;9.300;2024-03-08T11:21:04;26.80;;;18.98;;
83769;SDS011;73763;48.936;9.300;2024-03-08T11:23:33;27.15;;;19.67;;
83769;SDS011;73763;48.936;9.300;2024-03-08T11:25:59;23.25;;;18.02;;
83769;SDS011;73763;48.936;9.300;2024-03-08T11:28:25;23.20;;;17.27;;
83769;SDS011;73763;48.936;9.300;2024-03-08T11:33:28;25.98;;;18.08;;
83769;SDS011;73763;48.936;9.300;2024-03-08T11:36:11;23.73;;;17.45;;
83769;SDS011;73763;48.936;9.300;2024-03-08T11:38:40;23.65;;;17.60;;
83769;SDS011;73763;48.936;9.300;2024-03-08T11:41:06;22.25;;;17.42;;
83769;SDS011;73763;48.936;9.300;2024-03-08T11:43:31;23.87;;;18.30;;
83769;SDS011;73763;48.936;9.300;2024-03-08T11:46:30;23.43;;;17.90;;
83769;SDS011;73763;48.936;9.300;2024-03-08T11:48:49;23.70;;;17.70;;
83769;SDS011;73763;48.936;9.300;2024-03-08T11:51:19;23.13;;;18.40;;
83769;SDS011;73763;48.936;9.300;2024-03-08T11:53:44;25.38;;;19.77;;
83769;SDS011;73763;48.936;9.300;2024-03-08T11:56:10;24.40;;;17.90;;
83769;SDS011;73763;48.936;9.300;2024-03-08T11:58:40;23.90;;;19.25;;
83769;SDS011;73763;48.936;9.300;2024-03-08T12:01:06;22.20;;;17.88;;
83769;SDS011;73763;48.936;9.300;2024-03-08T12:03:33;23.33;;;18.20;;
83769;SDS011;73763;48.936;9.300;2024-03-08T12:05:59;23.30;;;18.77;;
83769;SDS011;73763;48.936;9.300;2024-03-08T12:08:26;22.98;;;18.00;;
83769;SDS011;73763;48.936;9.300;2024-03-08T12:10:53;22.67;;;17.63;;
83769;SDS011;73763;48.936;9.300;2024-03-08T12:13:21;24.58;;;18.42;;
83769;SDS011;73763;48.936;9.300;2024-03-08T12:15:47;27.10;;;18.53;;
83769;SDS011;73763;48.936;9.300;2024-03-08T12:18:12;24.40;;;19.17;;
83769;SDS011;73763;48.936;9.300;2024-03-08T12:20:38;28.07;;;21.07;;
83769;SDS011;73763;48.936;9.300;2024-03-08T12:23:03;23.77;;;18.07;;
83769;SDS011;73763;48.936;9.300;2024-03-08T12:25:32;28.52;;;21.73;;
83769;SDS011;73763;48.936;9.300;2024-03-08T12:28:06;24.85;;;18.13;;
83769;SDS011;73763;48.936;9.300;2024-03-08T12:30:33;22.88;;;17.88;;
83769;SDS011;73763;48.936;9.300;2024-03-08T12:33:00;23.87;;;19.00;;
83769;SDS011;73763;48.936;9.300;2024-03-08T12:35:26;24.83;;;18.30;;
83769;SDS011;73763;48.936;9.300;2024-03-08T12:37:53;23.27;;;18.02;;
83769;SDS011;73763;48.936;9.300;2024-03-08T12:40:26;22.92;;;18.48;;
83769;SDS011;73763;48.936;9.300;2024-03-08T12:42:55;24.23;;;18.42;;
83769;SDS011;73763;48.936;9.300;2024-03-08T12:45:22;26.67;;;20.07;;
83769;SDS011;73763;48.936;9.300;2024-03-08T12:47:48;24.20;;;18.05;;
83769;SDS011;73763;48.936;9.300;2024-03-08T12:50:13;22.60;;;18.33;;
83769;SDS011;73763;48.936;9.300;2024-03-08T12:52:39;25.80;;;19.03;;
83769;SDS011;73763;48.936;9.300;2024-03-08T12:55:04;25.80;;;19.70;;
83769;SDS011;73763;48.936;9.300;2024-03-08T12:57:30;24.87;;;18.17;;
83769;SDS011;73763;48.936;9.300;2024-03-08T12:59:58;25.17;;;19.88;;
83769;SDS011;73763;48.936;9.300;2024-03-08T13:02:23;23.90;;;19.53;;
83769;SDS011;73763;48.936;9.300;2024-03-08T13:04:49;24.63;;;18.67;;
83769;SDS011;73763;48.936;9.300;2024-03-08T13:07:15;24.05;;;18.00;;
83769;SDS011;73763;48.936;9.300;2024-03-08T13:09:41;26.30;;;18.52;;
83769;SDS011;73763;48.936;9.300;2024-03-08T13:12:06;24.90;;;18.77;;
83769;SDS011;73763;48.936;9.300;2024-03-08T13:14:32;22.88;;;17.25;;
83769;SDS011;73763;48.936;9.300;2024-03-08T13:16:57;22.20;;;16.83;;
83769;SDS011;73763;48.936;9.300;2024-03-08T13:19:23;22.27;;;16.83;;
83769;SDS011;73763;48.936;9.300;2024-03-08T13:21:48;21.77;;;16.63;;
83769;SDS011;73763;48.936;9.300;2024-03-08T13:24:14;23.53;;;18.23;;
83769;SDS011;73763;48.936;9.300;2024-03-08T13:26:39;22.37;;;18.43;;
83769;SDS011;73763;48.936;9.300;2024-03-08T13:29:05;24.70;;;19.07;;
83769;SDS011;73763;48.936;9.300;2024-03-08T13:31:30;23.48;;;18.30;;
83769;SDS011;73763;48.936;9.300;2024-03-08T13:33:56;25.87;;;19.57;;
83769;SDS011;73763;48.936;9.300;2024-03-08T13:36:21;25.10;;;18.73;;
83769;SDS011;73763;48.936;9.300;2024-03-08T13:38:49;25.85;;;18.35;;
83769;SDS011;73763;48.936;9.300;2024-03-08T13:41:15;24.08;;;18.23;;
83769;SDS011;73763;48.936;9.300;2024-03-08T13:43:41;23.85;;;18.63;;
83769;SDS011;73763;48.936;9.300;2024-03-08T13:46:06;23.97;;;18.90;;
83769;SDS011;73763;48.936;9.300;2024-03-08T13:48:32;21.05;;;16.25;;
83769;SDS011;73763;48.936;9.300;2024-03-08T13:50:58;21.23;;;15.93;;
83769;SDS011;73763;48.936;9.300;2024-03-08T13:53:24;20.93;;;16.53;;
83769;SDS011;73763;48.936;9.300;2024-03-08T13:55:50;22.23;;;16.52;;
83769;SDS011;73763;48.936;9.300;2024-03-08T13:58:15;20.23;;;16.37;;
83769;SDS011;73763;48.936;9.300;2024-03-08T14:00:41;22.88;;;17.73;;
83769;SDS011;73763;48.936;9.300;2024-03-08T14:03:06;24.48;;;17.85;;
83769;SDS011;73763;48.936;9.300;2024-03-08T14:05:32;20.27;;;16.70;;
83769;SDS011;73763;48.936;9.300;2024-03-08T14:07:57;21.45;;;17.45;;
83769;SDS011;73763;48.936;9.300;2024-03-08T14:10:23;22.20;;;16.55;;
83769;SDS011;73763;48.936;9.300;2024-03-08T14:12:48;20.67;;;16.43;;
83769;SDS011;73763;48.936;9.300;2024-03-08T14:15:14;21.03;;;16.47;;
83769;SDS011;73763;48.936;9.300;2024-03-08T14:17:39;20.70;;;16.33;;